Home > Products > Valid Products > MTR

000
SAUS45 KREV 020254
MTRDRA
METAR KDRA 020253Z AUTO 21014KT 10SM CLR 34/09 A2992 RMK AO2 SLP076
T03390089 53001





000
SAUS45 KREV 020154
MTRDRA
METAR KDRA 020153Z AUTO 22014KT 10SM CLR 36/09 A2991 RMK AO2 SLP071
T03560094





000
SAUS45 KREV 020154
MTRDRA
METAR KDRA 020153Z AUTO 22014KT 10SM CLR 36/09 A2991 RMK AO2 SLP071
T03560094





000
SAUS45 KREV 020055
MTRDRA
METAR KDRA 020053Z AUTO 23015G24KT 10SM CLR 36/10 A2991 RMK AO2
SLP070 T03610100





000
SAUS45 KREV 012354
MTRDRA
METAR KDRA 012353Z AUTO 24016G24KT 10SM CLR 36/11 A2992 RMK AO2 PK
WND 20026/2328 SLP076 T03610111 10378 20322 58019





000
SAUS45 KREV 012354
MTRDRA
METAR KDRA 012353Z AUTO 24016G24KT 10SM CLR 36/11 A2992 RMK AO2 PK
WND 20026/2328 SLP076 T03610111 10378 20322 58019





000
SAUS45 KREV 012255
MTRDRA
METAR KDRA 012253Z AUTO 22015G22KT 10SM CLR 37/09 A2994 RMK AO2
SLP076 T03670094





000
SAUS45 KREV 012255
MTRDRA
METAR KDRA 012253Z AUTO 22015G22KT 10SM CLR 37/09 A2994 RMK AO2
SLP076 T03670094





000
SAUS45 KREV 012155
MTRDRA
METAR KDRA 012153Z AUTO 23016G23KT 10SM CLR 37/10 A2997 RMK AO2
SLP086 T03720100





000
SAUS45 KREV 012054
MTRDRA
METAR KDRA 012053Z AUTO 25013G19KT 230V290 10SM CLR 37/10 A2998 RMK
AO2 SLP091 T03670100 58016





000
SAUS45 KREV 011954
MTRDRA
METAR KDRA 011953Z AUTO 22011G20KT 10SM CLR 35/12 A3000 RMK AO2
SLP098 T03500122





000
SAUS45 KREV 011854
MTRDRA
METAR KDRA 011853Z AUTO 21011G19KT 10SM CLR 34/13 A3003 RMK AO2
SLP107 T03390133





000
SAUS45 KREV 011854
MTRDRA
METAR KDRA 011853Z AUTO 21011G19KT 10SM CLR 34/13 A3003 RMK AO2
SLP107 T03390133





000
SAUS45 KREV 011754
MTRDRA
METAR KDRA 011753Z AUTO 23013G19KT 10SM CLR 32/14 A3004 RMK AO2
SLP111 T03220139 10328 20250 58005





000
SAUS45 KREV 011754
MTRDRA
METAR KDRA 011753Z AUTO 23013G19KT 10SM CLR 32/14 A3004 RMK AO2
SLP111 T03220139 10328 20250 58005





000
SAUS45 KREV 011655
MTRDRA
METAR KDRA 011653Z AUTO 28008KT 10SM CLR 31/14 A3005 RMK AO2 SLP116
T03060139





000
SAUS45 KREV 011554
MTRDRA
METAR KDRA 011553Z AUTO 28010KT 10SM CLR 28/13 A3006 RMK AO2 SLP122
T02830133





000
SAUS45 KREV 011454
MTRDRA
METAR KDRA 011453Z AUTO 26012KT 10SM CLR 28/13 A3005 RMK AO2 SLP117
T02830128 51014





000
SAUS45 KREV 011454
MTRDRA
METAR KDRA 011453Z AUTO 26012KT 10SM CLR 28/13 A3005 RMK AO2 SLP117
T02830128 51014





000
SAUS45 KREV 011354
MTRDRA
METAR KDRA 011353Z AUTO 23018G24KT 10SM CLR 26/14 A3005 RMK AO2 PK
WND 23029/1304 SLP117 T02610139





000
SAUS45 KREV 011255
MTRDRA
METAR KDRA 011253Z AUTO 23022G27KT 10SM CLR 26/14 A3003 RMK AO2 PK
WND 23031/1222 SLP110 T02610139





000
SAUS45 KREV 011255
MTRDRA
METAR KDRA 011253Z AUTO 23022G27KT 10SM CLR 26/14 A3003 RMK AO2 PK
WND 23031/1222 SLP110 T02610139





000
SAUS45 KREV 011155
MTRDRA
METAR KDRA 011153Z AUTO 24021G28KT 10SM FEW034 FEW050 SCT095 25/16
A3001 RMK AO2 PK WND 19035/1059 RAB02E27 SLP103 P0003 60003 70003
T02500156 10344 20239 53030





000
SAUS45 KREV 011155
MTRDRA
METAR KDRA 011153Z AUTO 24021G28KT 10SM FEW034 FEW050 SCT095 25/16
A3001 RMK AO2 PK WND 19035/1059 RAB02E27 SLP103 P0003 60003 70003
T02500156 10344 20239 53030





000
SAUS45 KREV 011055
MTRDRA
METAR KDRA 011053Z AUTO 19019G34KT 10SM CLR 31/09 A2997 RMK AO2 PK
WND 19034/1051 PRESRR SLP084 T03110094





000
SAUS45 KREV 011055
MTRDRA
METAR KDRA 011053Z AUTO 19019G34KT 10SM CLR 31/09 A2997 RMK AO2 PK
WND 19034/1051 PRESRR SLP084 T03110094





000
SAUS45 KREV 010954
MTRDRA
METAR KDRA 010953Z AUTO 08008KT 10SM CLR 32/09 A2991 RMK AO2 SLP062
T03170089





000
SAUS45 KREV 010855
MTRDRA
METAR KDRA 010853Z AUTO 04015G25KT 10SM CLR 33/09 A2991 RMK AO2 PK
WND 02027/0826 SLP064 T03280089 50002





000
SAUS45 KREV 010855
MTRDRA
METAR KDRA 010853Z AUTO 04015G25KT 10SM CLR 33/09 A2991 RMK AO2 PK
WND 02027/0826 SLP064 T03280089 50002





000
SAUS45 KREV 010754
MTRDRA
METAR KDRA 010753Z AUTO 03019G28KT 10SM CLR 33/08 A2991 RMK AO2 PK
WND 03028/0752 SLP066 T03280083 404170261





000
SAUS45 KREV 010754
MTRDRA
METAR KDRA 010753Z AUTO 03019G28KT 10SM CLR 33/08 A2991 RMK AO2 PK
WND 03028/0752 SLP066 T03280083 404170261





000
SAUS45 KREV 010654
MTRDRA
METAR KDRA 010653Z AUTO 01008KT 10SM CLR 33/06 A2991 RMK AO2 SLP066
T03280056





000
SAUS45 KREV 010654
MTRDRA
METAR KDRA 010653Z AUTO 01008KT 10SM CLR 33/06 A2991 RMK AO2 SLP066
T03280056





000
SAUS45 KREV 010555
MTRDRA
METAR KDRA 010553Z AUTO 00000KT 10SM CLR 34/05 A2990 RMK AO2 SLP063
T03390050 10406 20333 52008





000
SAUS45 KREV 010555
MTRDRA
METAR KDRA 010553Z AUTO 00000KT 10SM CLR 34/05 A2990 RMK AO2 SLP063
T03390050 10406 20333 52008





000
SAUS45 KREV 010454
MTRDRA
METAR KDRA 010453Z AUTO 02003KT 10SM CLR 34/05 A2990 RMK AO2 SLP062
T03440050





000
SAUS45 KREV 010354
MTRDRA
METAR KDRA 010353Z AUTO 26006KT 10SM CLR 36/05 A2989 RMK AO2 SLP057
T03560050





000
SAUS45 KREV 010354
MTRDRA
METAR KDRA 010353Z AUTO 26006KT 10SM CLR 36/05 A2989 RMK AO2 SLP057
T03560050





000
SAUS45 KREV 010255
MTRDRA
METAR KDRA 010253Z AUTO 23007KT 10SM CLR 38/06 A2988 RMK AO2 SLP055
T03780056 53001





000
SAUS45 KREV 010155
MTRDRA
METAR KDRA 010153Z AUTO 24008KT 10SM CLR 39/06 A2987 RMK AO2 SLP054
T03940056





000
SAUS45 KREV 010155
MTRDRA
METAR KDRA 010153Z AUTO 24008KT 10SM CLR 39/06 A2987 RMK AO2 SLP054
T03940056





000
SAUS45 KREV 010055
MTRDRA
METAR KDRA 010053Z AUTO 24009KT 10SM CLR 40/06 A2986 RMK AO2 SLP052
T04000056





000
SAUS45 KREV 302354
MTRDRA
METAR KDRA 302353Z AUTO 31009KT 10SM CLR 39/06 A2988 RMK AO2 SLP056
T03940056 10417 20367 56023





000
SAUS45 KREV 302254
MTRDRA
METAR KDRA 302253Z AUTO 00000KT 10SM CLR 41/06 A2990 RMK AO2 SLP061
T04060056





000
SAUS45 KREV 302154
MTRDRA
METAR KDRA 302153Z AUTO 28009G16KT 10SM CLR 41/06 A2992 RMK AO2
SLP069 T04060056





000
SAUS45 KREV 302055
MTRDRA
METAR KDRA 302053Z AUTO VRB04KT 10SM CLR 39/06 A2995 RMK AO2 SLP080
T03940056 58017





000
SAUS45 KREV 302055
MTRDRA
METAR KDRA 302053Z AUTO VRB04KT 10SM CLR 39/06 A2995 RMK AO2 SLP080
T03940056 58017





000
SAUS45 KREV 301955
MTRDRA
METAR KDRA 301953Z 21008KT 10SM FEW100CB SCT140 SCT250 37/06 A2998
RMK AO2 SLP090 CB DSNT E T03720061





000
SAUS45 KREV 301854
MTRDRA
METAR KDRA 301853Z 25008KT 10SM CLR 38/06 A3000 RMK AO2 SLP096
T03780061





000
SAUS45 KREV 301754
MTRDRA
METAR KDRA 301753Z 00000KT 10SM CLR 37/06 A3001 RMK AO2 SLP099
T03670061 10372 20261 50002





000
SAUS45 KREV 301754
MTRDRA
METAR KDRA 301753Z 00000KT 10SM CLR 37/06 A3001 RMK AO2 SLP099
T03670061 10372 20261 50002





000
SAUS45 KREV 301655
MTRDRA
METAR KDRA 301653Z 24005KT 10SM BKN140 BKN250 33/07 A3001 RMK AO2
SLP102 T03330067





000
SAUS45 KREV 301555
MTRDRA
METAR KDRA 301553Z VRB05KT 10SM BKN120 BKN250 33/07 A3001 RMK AO2
SLP101 T03280067





000
SAUS45 KREV 301555
MTRDRA
METAR KDRA 301553Z VRB05KT 10SM BKN120 BKN250 33/07 A3001 RMK AO2
SLP101 T03280067





000
SAUS45 KREV 291557
MTRDRA
METAR KDRA 291552Z 00000KT 10SM SCT120 SCT150 33/07 A3004 RMK AO2
SLP113 T03280067





000
SAUS45 KREV 291457
MTRDRA
METAR KDRA 291452Z AUTO 26003KT 10SM CLR 29/07 A3005 RMK AO2 SLP119
T02890067 51017





000
SAUS45 KREV 291457
MTRDRA
METAR KDRA 291452Z AUTO 26003KT 10SM CLR 29/07 A3005 RMK AO2 SLP119
T02890067 51017





000
SAUS45 KREV 291257
MTRDRA
METAR KDRA 291252Z AUTO 10005KT 10SM CLR 26/06 A3002 RMK AO2 SLP106
T02610061





000
SAUS45 KREV 291257
MTRDRA
METAR KDRA 291252Z AUTO 10005KT 10SM CLR 26/06 A3002 RMK AO2 SLP106
T02610061





000
SAUS45 KREV 291157
MTRDRA
METAR KDRA 291152Z AUTO 00000KT 10SM CLR 26/06 A3000 RMK AO2 SLP100
T02560061 10317 20256 53002





000
SAUS45 KREV 291157
MTRDRA
METAR KDRA 291152Z AUTO 00000KT 10SM CLR 26/06 A3000 RMK AO2 SLP100
T02560061 10317 20256 53002





000
SAUS45 KREV 291057
MTRDRA
METAR KDRA 291052Z AUTO 03008KT 10SM CLR 27/07 A2999 RMK AO2 SLP094
T02720067





000
SAUS45 KREV 290957
MTRDRA
METAR KDRA 290952Z AUTO 05005KT 10SM CLR 27/07 A2999 RMK AO2 SLP096
T02720067





000
SAUS45 KREV 290857
MTRDRA
METAR KDRA 290852Z AUTO 34006KT 10SM CLR 28/07 A2999 RMK AO2 SLP095
T02830067 58001





000
SAUS45 KREV 290857
MTRDRA
METAR KDRA 290852Z AUTO 34006KT 10SM CLR 28/07 A2999 RMK AO2 SLP095
T02830067 58001





000
SAUS45 KREV 290757
MTRDRA
METAR KDRA 290752Z AUTO 28004KT 10SM CLR 31/07 A2999 RMK AO2 SLP094
T03060067 404000272





000
SAUS45 KREV 290657
MTRDRA
METAR KDRA 290652Z AUTO 31007KT 10SM CLR 31/07 A3000 RMK AO2 SLP096
T03060067





000
SAUS45 KREV 290557
MTRDRA
METAR KDRA 290552Z AUTO 24006KT 10SM CLR 32/07 A2999 RMK AO2 SLP096
T03170067 10383 20311 51010





000
SAUS45 KREV 290557
MTRDRA
METAR KDRA 290552Z AUTO 24006KT 10SM CLR 32/07 A2999 RMK AO2 SLP096
T03170067 10383 20311 51010





000
SAUS45 KREV 290456
MTRDRA
METAR KDRA 290452Z AUTO 23008KT 10SM CLR 31/07 A2999 RMK AO2 SLP093
T03110072





000
SAUS45 KREV 290357
MTRDRA
METAR KDRA 290352Z AUTO 23009KT 10SM CLR 33/07 A2997 RMK AO2 SLP089
T03280067





000
SAUS45 KREV 290357
MTRDRA
METAR KDRA 290352Z AUTO 23009KT 10SM CLR 33/07 A2997 RMK AO2 SLP089
T03280067





    US Dept of Commerce
    National Oceanic and Atmospheric Administration
    National Weather Service
    1325 East West Highway
    Silver Spring, MD 20910
    Page Author: NWS Internet Services Team
Disclaimer
Information Quality
Credits
Glossary
Privacy Policy
Freedom of Information Act (FOIA)
About Us
Career Opportunities